Date,TemperatureHighF,TemperatureAvgF,TemperatureLowF,DewpointHighF,DewpointAvgF,DewpointLowF,HumidityHigh,HumidityAvg,HumidityLow,PressureMaxIn,PressureMinIn,WindSpeedMaxMPH,WindSpeedAvgMPH,GustSpeedMaxMPH,PrecipitationSumIn
2013-1-1,36.2,30.5,14.3,27.0,17.7,6.0,75,60,49,29.93,29.71,5,1,14,0.01
2013-1-2,29.6,20.0,11.0,16.0,9.7,2.0,79,65,52,30.15,29.91,4,0,9,0.00
2013-1-3,20.6,10.9,0.0,12.0,1.7,-6.0,79,67,46,30.16,29.98,2,0,4,0.00
2013-1-4,40.3,27.6,12.3,24.0,18.4,9.0,89,70,50,29.97,29.81,3,0,8,0.01
2013-1-5,41.3,34.1,23.0,25.0,21.5,17.0,84,61,43,30.24,29.86,9,1,9,0.02
2013-1-6,41.9,31.1,22.2,29.0,25.5,19.0,94,80,61,30.19,29.90,5,0,6,0.04
2013-1-7,38.2,31.4,17.7,29.0,22.5,15.0,91,71,45,30.36,29.96,6,0,10,0.00
2013-1-8,47.2,28.5,14.3,29.0,21.2,12.0,93,77,44,30.35,30.24,5,0,6,0.00
2013-1-9,44.7,30.0,18.3,33.0,24.9,17.0,94,83,47,30.37,29.99,3,0,10,0.00
2013-1-10,44.9,38.5,27.3,29.0,24.5,23.0,85,59,43,30.52,30.07,10,1,23,0.00
2013-1-11,34.9,29.3,22.7,32.0,25.8,20.0,96,87,71,30.52,30.17,1,0,1,0.20
2013-1-12,40.4,36.1,32.5,39.0,35.1,32.0,97,96,93,30.18,30.11,1,0,1,0.04
2013-1-13,42.8,39.0,35.5,42.0,38.3,35.0,98,97,97,30.13,29.97,1,0,4,0.01
2013-1-14,51.2,42.2,36.1,48.0,35.4,25.0,98,79,52,30.26,29.89,3,0,14,0.04
2013-1-15,39.0,34.1,27.7,27.0,25.2,24.0,89,71,55,30.32,30.21,3,0,4,0.00
2013-1-16,32.7,31.5,29.3,32.0,29.3,25.0,96,92,77,30.23,29.81,0,0,1,0.00
2013-1-17,40.4,31.9,25.2,34.0,24.9,12.0,97,77,53,30.09,29.83,6,0,12,0.20
2013-1-18,27.0,21.3,16.5,13.0,3.7,-4.0,66,48,33,30.42,30.04,6,1,11,0.00
2013-1-19,45.8,34.6,21.5,28.0,20.5,9.0,79,58,42,30.33,29.83,8,2,13,0.07
2013-1-20,51.5,37.7,26.9,32.0,23.0,8.0,81,58,26,29.96,29.55,9,1,15,0.01
2013-1-21,28.3,23.3,16.5,21.0,13.1,8.0,90,67,47,30.07,29.77,4,0,7,0.00
2013-1-22,23.1,18.3,11.0,20.0,4.8,-4.0,90,59,32,30.09,29.75,5,1,14,0.00
2013-1-23,15.2,9.1,4.4,-3.0,-6.0,-9.0,63,51,38,30.16,30.08,6,1,14,0.00
2013-1-24,18.7,9.0,0.0,-3.0,-7.0,-9.0,75,51,31,30.27,30.11,5,1,15,0.00
2013-1-25,21.9,13.8,3.3,13.0,-1.9,-8.0,86,53,30,30.34,30.05,3,0,6,0.00
2013-1-26,23.9,15.1,5.0,12.0,4.6,0.0,90,66,42,30.27,30.01,4,0,11,0.00
2013-1-27,30.5,18.5,5.4,7.0,2.8,-1.0,84,54,27,30.46,30.27,3,0,10,0.00
2013-1-28,24.4,20.2,13.4,23.0,14.0,5.0,93,77,55,30.45,29.99,1,0,3,0.00
2013-1-29,33.6,29.6,24.5,31.0,26.5,23.0,95,88,78,30.16,29.99,4,0,5,0.19
2013-1-30,52.0,39.8,32.4,52.0,39.0,31.0,98,97,95,30.10,29.35,3,0,7,0.26
2013-1-31,59.3,44.4,30.2,57.0,34.2,11.0,98,70,43,29.60,28.93,12,2,21,0.98
2013-2-1,30.8,26.8,21.1,16.0,8.5,5.0,63,47,38,30.09,29.60,8,1,13,0.00
2013-2-2,30.7,23.6,14.8,15.0,6.9,1.0,69,50,34,30.22,30.01,9,1,12,0.00
2013-2-3,29.8,23.6,15.8,17.0,15.6,13.0,93,72,55,30.03,29.73,2,0,7,0.00
2013-2-4,28.2,23.4,18.4,16.0,11.9,8.0,76,62,43,29.94,29.73,5,1,12,0.00
2013-2-5,30.5,25.0,20.3,23.0,14.8,10.0,87,66,50,30.00,29.89,3,0,6,0.00
2013-2-6,36.2,28.2,20.9,26.0,16.1,2.0,94,64,33,30.31,29.89,7,1,13,0.00
2013-2-7,32.0,23.9,14.2,11.0,7.3,4.0,78,51,32,30.51,30.31,3,0,6,0.00
2013-2-8,28.2,25.3,19.7,26.0,18.9,6.0,93,78,41,30.41,29.71,9,2,16,0.00
2013-2-9,25.6,20.8,12.7,24.0,18.1,7.0,95,89,75,30.25,29.71,7,2,14,0.00
2013-2-10,31.5,15.3,-1.4,27.0,10.0,-5.0,89,80,51,30.44,30.26,2,0,4,0.00
2013-2-11,32.9,26.2,13.4,32.0,24.6,11.0,97,93,89,30.32,29.63,0,0,1,0.00
2013-2-12,41.5,37.1,32.6,33.0,28.6,23.0,97,72,60,29.89,29.65,7,1,13,0.35
2013-2-13,43.2,35.7,32.0,26.0,24.0,23.0,78,63,45,29.86,29.70,3,0,6,0.03
2013-2-14,44.3,33.1,22.5,25.0,23.0,20.0,92,69,40,29.95,29.70,4,0,5,0.00
2013-2-15,51.0,36.2,24.9,34.0,28.8,22.0,92,76,52,29.96,29.86,4,0,8,0.00
2013-2-16,38.8,33.8,28.1,31.0,23.4,8.0,94,68,43,29.95,29.73,5,1,12,0.06
2013-2-17,27.9,22.6,14.3,9.0,3.7,0.0,53,45,33,29.81,29.52,8,2,18,0.00
2013-2-18,30.1,20.8,11.4,7.0,0.2,-3.0,57,42,25,30.15,29.81,5,1,12,0.00
2013-2-19,44.9,31.6,17.5,38.0,22.7,7.0,96,71,48,30.16,29.56,4,0,10,0.08
2013-2-20,36.2,30.2,25.1,35.0,16.9,10.0,96,59,37,29.82,29.56,8,1,15,0.00
2013-2-21,29.6,26.1,23.1,17.0,12.9,10.0,68,58,47,30.26,29.80,8,1,15,0.00
2013-2-22,40.4,30.5,15.6,26.0,19.6,13.0,90,66,46,30.38,30.26,2,0,7,0.00
2013-2-23,35.3,33.8,31.8,34.0,29.7,25.0,96,85,73,30.28,29.88,1,0,4,0.07
2013-2-24,39.1,35.3,32.6,36.0,33.3,30.0,96,92,85,29.89,29.71,6,1,7,0.09
2013-2-25,40.7,34.4,27.8,31.0,28.7,25.0,90,80,66,30.23,29.90,5,1,9,0.00
2013-2-26,41.9,35.7,27.8,33.0,28.9,26.0,93,77,57,30.30,30.11,3,0,5,0.00
2013-2-27,40.6,36.2,32.5,39.0,34.0,29.0,96,92,74,30.10,29.60,6,1,9,1.52
2013-2-28,41.8,35.9,31.8,36.0,33.6,31.0,97,91,80,29.61,29.53,3,0,4,0.00
2013-3-1,45.1,36.9,30.5,34.0,29.7,27.0,97,77,56,29.70,29.54,5,0,7,0.00
2013-3-2,40.4,36.0,32.7,28.0,26.2,23.0,77,68,59,29.70,29.63,4,1,7,0.00
2013-3-3,37.6,32.4,29.3,27.0,23.9,21.0,79,71,63,29.67,29.59,4,1,8,0.00
2013-3-4,38.7,31.6,26.1,23.0,21.0,19.0,75,65,52,29.80,29.66,6,1,12,0.00
2013-3-5,44.5,36.6,28.9,28.0,24.9,21.0,73,64,52,30.05,29.80,4,1,10,0.00
2013-3-6,40.4,36.9,34.4,35.0,30.6,28.0,88,78,71,30.08,30.01,9,2,15,0.02
2013-3-7,37.9,34.3,31.3,32.0,29.6,27.0,94,83,68,30.07,30.01,7,2,14,0.05
2013-3-8,40.8,35.3,31.1,31.0,28.7,24.0,94,78,59,30.17,29.96,7,2,11,0.12
2013-3-9,56.8,40.5,27.5,25.0,20.6,10.0,82,51,16,30.32,30.17,4,1,8,0.00
2013-3-10,52.0,38.8,23.3,33.0,27.4,21.0,92,67,42,30.39,30.24,5,1,9,0.00
2013-3-11,50.8,43.4,35.8,42.0,36.3,32.0,86,77,63,30.28,30.09,5,1,10,0.00
2013-3-12,53.5,48.5,41.4,52.0,46.4,35.0,97,92,79,30.09,29.66,6,1,11,0.93
2013-3-13,47.6,39.4,29.8,35.0,27.8,20.0,96,67,37,29.81,29.73,6,1,11,0.01
2013-3-14,36.0,29.5,25.0,25.0,14.8,8.0,76,55,40,29.86,29.78,7,1,12,0.00
2013-3-15,41.5,30.7,21.6,31.0,17.0,5.0,89,59,32,29.88,29.64,4,0,10,0.00
2013-3-16,38.9,32.4,24.2,25.0,15.5,11.0,72,51,32,29.87,29.70,3,0,6,0.00
2013-3-17,37.7,29.8,22.6,16.0,10.4,3.0,70,47,24,30.30,29.87,7,1,12,0.00
2013-3-18,38.5,28.5,16.5,26.0,7.7,0.0,89,45,20,30.45,30.17,3,0,11,0.00
2013-3-19,34.7,31.3,28.1,33.0,29.8,26.0,96,94,90,30.16,29.65,4,0,7,0.12
2013-3-20,38.5,31.0,24.0,30.0,21.1,19.0,96,69,45,29.80,29.71,7,1,9,0.05
2013-3-21,40.0,29.2,18.8,21.0,16.6,13.0,93,63,34,29.80,29.58,4,0,12,0.03
2013-3-22,39.6,31.1,21.8,24.0,18.5,13.0,73,60,45,29.77,29.64,6,1,14,0.12
2013-3-23,41.5,35.6,29.6,25.0,20.9,18.0,75,57,39,29.82,29.71,7,1,12,0.05
2013-3-24,45.7,37.3,26.8,24.0,22.8,21.0,81,58,41,29.85,29.71,5,1,11,0.00
2013-3-25,46.2,37.8,31.2,28.0,25.0,23.0,73,61,44,29.75,29.49,6,1,13,0.00
2013-3-26,46.8,38.9,29.7,31.0,25.9,20.0,78,62,37,29.80,29.56,4,0,7,0.00
2013-3-27,52.8,40.0,24.1,31.0,26.2,22.0,92,62,34,29.88,29.77,7,1,12,0.00
2013-3-28,50.9,42.7,35.6,37.0,31.2,28.0,89,65,44,30.02,29.88,4,0,8,0.01
2013-3-29,56.1,45.6,34.2,34.0,30.6,27.0,86,58,38,30.06,29.98,4,1,8,0.00
2013-3-30,56.2,45.3,30.9,32.0,24.6,17.0,87,49,22,30.09,30.00,8,1,9,0.00
2013-3-31,58.6,43.0,27.0,41.0,28.8,23.0,86,62,28,30.10,29.69,7,1,13,0.06
2013-4-1,59.9,43.7,32.9,44.0,34.5,15.0,96,73,41,29.82,29.50,6,1,12,0.25
2013-4-2,38.6,33.1,27.4,19.0,15.5,11.0,66,49,33,29.98,29.83,12,2,15,0.00
2013-4-3,42.7,34.7,28.7,19.0,14.6,10.0,63,45,26,30.20,29.96,7,2,19,0.00
2013-4-4,56.6,41.3,25.7,26.0,18.4,13.0,73,44,19,30.32,30.02,6,1,12,0.00
2013-4-5,60.0,45.4,34.4,31.0,26.1,16.0,82,51,20,30.01,29.68,6,1,12,0.00
2013-4-6,47.4,38.7,29.8,27.0,11.6,3.0,66,36,16,30.29,29.91,5,1,11,0.00
2013-4-7,55.9,42.9,26.7,40.0,28.2,17.0,85,59,35,30.29,29.95,9,1,19,0.00
2013-4-8,65.7,49.0,34.4,41.0,36.9,33.0,95,68,32,30.06,29.95,2,0,6,0.00
2013-4-9,67.2,56.9,45.7,51.0,43.4,39.0,95,63,38,29.99,29.85,5,1,13,0.08
2013-4-10,65.2,55.0,46.4,54.0,48.5,42.0,96,80,58,29.97,29.80,5,0,5,0.28
2013-4-11,53.2,47.4,37.2,51.0,39.3,29.0,94,75,48,30.13,29.82,5,2,10,0.10
2013-4-12,37.9,36.6,34.5,37.0,34.8,33.0,95,93,89,30.12,29.80,4,1,6,0.50
2013-4-13,52.7,43.3,35.3,41.0,35.9,34.0,95,77,52,29.92,29.79,2,0,7,0.08
2013-4-14,52.5,44.1,34.2,38.0,30.8,24.0,91,63,38,30.22,29.90,11,1,12,0.00
2013-4-15,59.3,45.4,29.2,34.0,30.3,26.0,90,59,36,30.37,30.22,4,1,9,0.00
2013-4-16,66.3,52.5,38.8,52.0,43.0,32.0,84,71,47,30.36,30.05,7,2,16,0.05
2013-4-17,66.8,56.6,44.8,53.0,35.8,26.0,92,49,27,30.31,30.07,6,1,10,0.03
2013-4-18,63.0,50.2,35.6,46.0,34.1,29.0,84,58,31,30.39,30.10,10,1,13,0.00
2013-4-19,73.5,61.2,50.4,62.0,56.1,46.0,96,84,65,30.10,29.59,9,2,21,0.22
2013-4-20,63.5,50.3,38.9,61.0,36.0,22.0,94,62,33,30.26,29.60,8,1,12,0.55
2013-4-21,54.0,42.1,30.3,25.0,20.3,15.0,70,44,22,30.64,30.27,8,1,12,0.00
2013-4-22,56.3,43.9,30.0,32.0,25.8,21.0,81,52,28,30.71,30.55,5,1,11,0.00
2013-4-23,44.5,41.1,37.7,38.0,33.9,29.0,84,76,69,30.56,30.11,5,2,10,0.00
2013-4-24,76.4,56.5,41.9,48.0,43.4,38.0,86,65,32,30.11,29.75,4,1,13,0.00
2013-4-25,62.2,52.4,40.9,50.0,32.7,21.0,92,51,21,30.26,29.80,5,1,13,0.01
2013-4-26,65.1,50.1,33.0,34.0,30.3,27.0,85,51,26,30.39,30.26,4,0,8,0.00
2013-4-27,69.0,53.2,35.1,41.0,33.0,29.0,82,50,24,30.40,30.23,5,1,9,0.00
2013-4-28,71.9,56.5,38.9,42.0,37.1,31.0,90,53,27,30.32,30.15,6,1,9,0.00
2013-4-29,67.2,56.5,47.1,46.0,36.1,24.0,74,49,27,30.24,30.17,5,1,11,0.00
2013-4-30,73.4,60.5,50.0,41.0,31.7,16.0,69,38,14,30.32,30.22,4,0,8,0.00
2013-5-1,76.5,57.9,37.3,45.0,34.7,25.0,82,47,20,30.45,30.31,3,0,9,0.00
2013-5-2,81.6,60.8,41.2,46.0,39.8,33.0,93,53,20,30.44,30.23,4,0,7,0.00
2013-5-3,69.3,56.4,42.9,44.0,39.5,34.0,79,55,37,30.50,30.32,3,1,8,0.00
2013-5-4,73.0,57.3,41.0,47.0,38.1,21.0,95,56,18,30.35,30.19,6,1,9,0.00
2013-5-5,72.6,53.7,34.8,43.0,35.3,30.0,89,55,22,30.31,30.15,4,0,8,0.00
2013-5-6,74.0,55.9,39.3,49.0,40.9,33.0,94,63,24,30.27,30.08,3,0,7,0.00
2013-5-7,80.3,62.9,42.8,56.0,48.9,41.0,96,66,27,30.16,30.03,4,1,9,0.00
2013-5-8,74.1,62.9,53.8,62.0,57.7,52.0,96,84,55,30.15,30.00,9,0,10,0.30
2013-5-9,70.3,61.8,55.3,59.0,57.2,54.0,97,86,60,30.00,29.84,3,0,5,0.02
2013-5-10,78.7,65.5,53.6,61.0,55.4,53.0,97,74,44,29.96,29.85,2,0,8,0.00
2013-5-11,68.8,63.2,58.7,63.0,59.6,55.0,96,88,69,29.86,29.65,6,1,11,0.33
2013-5-12,68.7,58.3,47.2,61.0,46.3,30.0,97,67,38,29.82,29.58,7,1,13,0.00
2013-5-13,54.6,47.8,40.0,33.0,29.5,26.0,76,51,36,30.04,29.83,6,1,8,0.00
2013-5-14,58.2,48.0,38.4,35.0,31.5,27.0,83,56,32,30.06,29.98,3,0,5,0.00
2013-5-15,62.2,47.2,32.7,54.0,41.1,31.0,95,81,46,30.05,29.65,6,1,10,0.08
2013-5-16,82.1,65.2,48.3,50.0,42.7,36.0,96,52,20,29.78,29.63,6,1,10,0.01
2013-5-17,72.0,59.3,46.6,43.0,39.8,32.0,84,52,26,30.20,29.79,5,1,9,0.00
2013-5-18,73.1,59.1,43.2,48.0,43.7,40.0,92,61,31,30.30,30.19,8,1,12,0.00
2013-5-19,64.4,55.9,46.0,55.0,51.5,44.0,96,86,68,30.32,30.16,6,0,9,0.15
2013-5-20,83.2,67.5,55.7,67.0,60.5,55.0,97,80,53,30.16,29.90,3,0,5,0.00
2013-5-21,89.8,69.4,55.4,72.0,63.6,53.0,96,83,49,29.98,29.76,2,0,9,0.05
2013-5-22,77.3,65.4,54.3,69.0,61.5,53.0,96,87,73,29.99,29.79,3,0,7,0.80
2013-5-23,72.9,67.9,65.5,70.0,66.1,64.0,96,94,88,29.85,29.73,4,1,8,1.55
2013-5-24,66.8,59.4,46.2,65.0,56.0,45.0,97,89,76,29.88,29.61,4,0,11,0.26
2013-5-25,47.8,45.4,42.0,46.0,43.3,39.0,95,92,88,29.87,29.79,3,1,11,0.50
2013-5-26,55.6,48.2,39.7,47.0,41.8,38.0,95,79,63,30.11,29.78,6,1,13,0.02
2013-5-27,73.7,56.3,38.7,45.0,39.7,35.0,98,61,26,30.16,30.07,4,0,9,0.00
2013-5-28,74.7,58.9,40.9,56.0,45.9,40.0,96,66,33,30.22,30.11,5,1,12,0.00
2013-5-29,74.6,63.6,57.8,68.0,61.1,56.0,97,91,77,30.14,29.94,3,0,10,0.80
2013-5-30,90.5,74.0,62.1,74.0,66.6,61.0,98,81,47,30.08,29.99,2,0,6,0.00
2013-5-31,95.1,78.0,62.1,74.0,66.0,61.0,97,71,32,30.09,29.90,4,0,7,0.00
2013-6-1,93.6,78.2,62.9,72.0,66.7,61.0,96,71,35,29.95,29.81,3,1,13,0.00
2013-6-2,88.6,75.1,67.1,72.0,68.3,65.0,97,81,57,29.85,29.68,5,1,14,0.49
2013-6-3,77.7,68.7,55.0,67.0,61.3,40.0,97,79,54,29.86,29.76,4,0,8,0.27
2013-6-4,73.9,60.8,48.0,50.0,44.7,40.0,81,57,39,30.08,29.86,5,1,9,0.00
2013-6-5,75.6,62.0,48.2,53.0,48.9,46.0,93,66,38,30.18,30.05,5,0,7,0.00
2013-6-6,72.7,61.5,51.2,57.0,52.3,49.0,95,74,46,30.16,30.05,4,0,9,0.12
2013-6-7,56.4,55.0,53.0,55.0,53.8,52.0,97,95,92,30.07,29.78,2,0,5,1.78
2013-6-8,76.6,63.0,52.1,64.0,57.1,51.0,97,82,62,30.01,29.65,3,1,8,0.40
2013-6-9,80.3,66.7,53.7,58.0,55.3,51.0,97,70,38,30.14,30.00,5,0,7,0.00
2013-6-10,65.4,60.2,52.9,63.0,58.2,52.0,97,93,81,30.17,29.93,1,0,2,1.29
2013-6-11,66.2,60.5,57.2,61.0,58.7,56.0,97,94,81,29.92,29.56,2,0,5,0.98
2013-6-12,72.3,63.8,55.3,58.0,54.4,52.0,96,73,51,29.82,29.57,7,1,12,0.00
2013-6-13,57.7,54.4,49.7,57.0,53.1,49.0,97,95,90,29.81,29.66,2,0,5,1.31
2013-6-14,76.8,60.6,51.5,59.0,53.8,48.0,97,81,39,29.80,29.64,4,0,8,0.49
2013-6-15,79.6,65.0,50.8,56.0,49.2,41.0,98,63,27,29.94,29.80,3,0,9,0.00
2013-6-16,74.3,64.1,48.6,62.0,55.3,47.0,94,74,59,29.94,29.68,4,0,9,0.00
2013-6-17,85.6,69.4,58.2,67.0,61.1,57.0,96,78,40,29.88,29.74,3,0,11,0.10
2013-6-18,70.5,62.1,58.0,65.0,59.8,55.0,98,92,81,29.92,29.86,5,0,6,0.12
2013-6-19,76.1,63.2,52.5,56.0,50.3,44.0,97,67,37,30.14,29.89,4,0,7,0.00
2013-6-20,82.3,64.2,45.9,58.0,50.2,44.0,94,65,31,30.26,30.14,4,0,9,0.00
2013-6-21,86.8,69.8,54.2,66.0,59.3,53.0,96,73,34,30.23,30.15,2,0,5,0.00
2013-6-22,85.9,73.4,60.6,66.0,61.0,57.0,92,68,39,30.20,30.06,4,0,9,0.00
2013-6-23,91.7,77.6,64.1,74.0,65.5,59.0,84,68,46,30.13,29.95,4,1,11,0.00
2013-6-24,92.8,78.4,67.0,73.0,69.3,62.0,96,76,48,30.01,29.86,5,0,14,0.04
2013-6-25,91.9,76.4,64.7,73.0,68.2,64.0,97,79,44,29.93,29.70,4,0,7,0.29
2013-6-26,82.0,74.6,68.4,72.0,69.4,67.0,98,84,67,29.80,29.71,2,0,4,0.01
2013-6-27,80.0,72.2,66.4,73.0,69.1,65.0,97,90,76,29.80,29.65,2,0,5,0.05
2013-6-28,82.8,73.3,66.3,74.0,70.3,65.0,97,90,70,29.65,29.41,3,1,12,1.32
2013-6-29,85.3,75.4,69.2,72.0,69.8,66.0,98,84,56,29.67,29.45,7,1,12,0.06
2013-6-30,86.7,75.2,67.6,75.0,70.7,67.0,98,86,63,29.89,29.67,4,1,9,0.01
2013-7-1,76.2,73.8,71.4,74.0,71.9,70.0,97,94,89,30.02,29.89,2,0,5,0.53
2013-7-2,85.2,77.2,71.9,75.0,72.8,71.0,97,87,70,30.12,30.02,5,1,8,0.02
2013-7-3,88.7,80.1,73.0,75.0,72.6,71.0,93,79,56,30.17,30.10,3,1,8,0.00
2013-7-4,92.3,81.5,71.3,76.0,73.0,70.0,97,77,53,30.18,30.06,4,1,10,0.00
2013-7-5,93.7,82.6,72.0,77.0,73.4,70.0,96,75,47,30.14,30.00,4,0,9,0.00
2013-7-6,91.1,81.1,72.7,75.0,72.3,69.0,95,76,51,30.06,29.96,4,0,10,0.00
2013-7-7,92.4,77.2,69.7,79.0,72.1,67.0,97,85,61,30.01,29.89,2,0,7,0.05
2013-7-8,88.2,77.8,70.5,74.0,71.1,69.0,98,82,56,30.00,29.88,3,0,5,0.00
2013-7-9,81.5,74.7,70.6,74.0,71.1,69.0,96,88,77,30.05,29.98,2,0,4,0.02
2013-7-10,85.2,76.1,72.6,77.0,73.1,70.0,97,90,73,30.00,29.75,4,0,9,0.36
2013-7-11,84.4,75.6,69.9,74.0,70.6,66.0,98,86,55,29.91,29.74,2,0,3,0.01
2013-7-12,82.4,73.0,67.1,67.0,62.4,57.0,86,70,56,30.16,29.92,4,0,6,0.00
2013-7-13,78.0,70.6,64.3,72.0,65.3,59.0,96,83,71,30.27,30.16,3,0,3,0.10
2013-7-14,91.8,79.6,70.2,76.0,72.3,69.0,97,80,52,30.29,30.17,2,0,5,0.00
2013-7-15,92.7,80.7,70.2,75.0,71.8,69.0,97,77,48,30.19,30.08,4,0,6,0.00
2013-7-16,93.1,80.6,68.3,74.0,69.4,67.0,95,71,43,30.15,30.08,3,0,6,0.00
2013-7-17,95.5,81.2,68.1,76.0,70.8,66.0,94,73,45,30.17,29.99,4,0,6,0.00
2013-7-18,95.0,83.8,73.3,77.0,72.9,70.0,93,72,44,29.99,29.89,2,0,6,0.00
2013-7-19,96.4,84.9,71.8,77.0,73.6,70.0,93,71,49,29.91,29.69,5,1,12,0.00
2013-7-20,89.7,80.6,69.8,77.0,70.1,61.0,87,71,54,29.81,29.64,3,0,8,0.00
2013-7-21,85.2,74.9,63.4,69.0,65.0,61.0,93,73,52,29.95,29.82,3,0,4,0.00
2013-7-22,85.5,73.5,64.9,72.0,67.4,63.0,95,82,60,29.98,29.81,2,0,7,0.03
2013-7-23,82.3,73.9,68.8,77.0,71.1,68.0,97,91,73,29.81,29.51,3,0,4,2.82
2013-7-24,80.0,73.1,64.4,71.0,64.5,55.0,98,77,51,29.95,29.57,3,0,9,0.00
2013-7-25,70.5,63.3,57.0,61.0,54.5,48.0,86,73,62,30.07,29.96,4,0,7,0.00
2013-7-26,73.8,66.1,60.0,66.0,62.0,58.0,96,87,71,30.04,29.96,2,0,4,0.36
2013-7-27,83.5,69.4,57.2,69.0,62.0,56.0,97,80,50,30.05,29.94,4,0,7,0.00
2013-7-28,81.5,71.5,62.6,70.0,65.7,61.0,96,83,59,29.99,29.92,4,0,4,0.00
2013-7-29,86.0,75.1,66.9,69.0,65.3,58.0,94,73,40,30.05,29.93,5,0,9,0.00
2013-7-30,80.9,70.0,58.4,62.0,58.6,55.0,91,68,47,30.10,30.03,3,0,6,0.00
2013-7-31,81.9,70.0,58.3,64.0,59.9,56.0,95,73,44,30.14,30.01,3,0,6,0.00
2013-8-1,78.9,66.8,58.1,69.0,63.6,57.0,97,90,68,30.02,29.83,4,0,9,0.39
2013-8-2,83.5,72.0,64.8,67.0,63.1,59.0,97,76,45,29.86,29.77,5,0,6,0.12
2013-8-3,80.8,68.7,60.1,64.0,60.6,55.0,96,77,52,29.85,29.77,4,0,6,0.00
2013-8-4,77.5,65.3,56.0,63.0,56.3,53.0,94,74,46,29.92,29.79,4,0,8,0.05
2013-8-5,76.6,62.6,52.1,55.0,51.3,47.0,94,70,38,30.03,29.91,4,0,8,0.00
2013-8-6,80.4,64.4,48.9,58.0,53.5,48.0,96,71,40,30.12,30.04,4,0,11,0.00
2013-8-7,80.0,68.4,56.6,63.0,59.3,55.0,96,75,45,30.16,30.06,6,0,9,0.00
2013-8-8,81.9,74.6,67.1,73.0,68.7,63.0,95,82,70,30.06,29.96,4,1,8,0.00
2013-8-9,77.5,73.7,70.2,75.0,71.9,69.0,97,94,87,29.98,29.73,4,0,6,2.44
2013-8-10,81.0,71.0,60.1,70.0,58.8,46.0,98,69,40,30.01,29.80,5,0,11,0.00
2013-8-11,79.6,66.2,51.7,60.0,55.2,50.0,96,70,43,30.09,29.98,3,0,8,0.00
2013-8-12,82.3,69.1,57.1,66.0,60.7,56.0,97,77,50,30.02,29.89,3,0,8,0.00
2013-8-13,73.9,68.2,63.6,70.0,65.7,62.0,96,91,79,29.90,29.66,3,0,6,0.30
2013-8-14,72.9,62.8,54.3,64.0,54.8,52.0,97,76,54,29.97,29.68,5,0,12,0.00
2013-8-15,75.2,61.7,49.9,58.0,53.2,49.0,98,76,45,30.11,29.97,3,0,7,0.00
2013-8-16,81.3,64.5,51.0,61.0,54.5,50.0,97,74,35,30.18,30.10,3,0,5,0.00
2013-8-17,81.9,65.9,52.1,63.0,57.2,51.0,97,77,40,30.27,30.19,3,0,4,0.00
2013-8-18,76.9,66.4,57.2,67.0,61.7,56.0,97,86,62,30.26,30.07,3,0,4,0.00
2013-8-19,80.1,68.9,58.2,66.0,61.6,57.0,98,80,51,30.07,29.96,2,0,5,0.00
2013-8-20,84.3,70.1,58.3,67.0,62.5,58.0,98,80,44,30.09,29.99,3,0,6,0.00
2013-8-21,87.1,71.7,58.4,69.0,63.6,58.0,98,79,43,30.15,30.00,2,0,7,0.00
2013-8-22,84.5,73.8,60.9,74.0,68.2,60.0,97,84,69,30.02,29.81,5,1,11,0.04
2013-8-23,79.5,69.8,59.1,68.0,60.4,52.0,97,74,47,30.13,29.83,3,0,8,0.00
2013-8-24,78.1,63.1,50.3,59.0,53.3,49.0,96,73,43,30.32,30.13,3,0,6,0.00
2013-8-25,81.9,65.3,50.0,61.0,55.7,49.0,98,75,39,30.38,30.16,4,0,6,0.00
2013-8-26,79.4,70.4,62.6,69.0,64.1,58.0,96,81,67,30.17,29.87,3,0,7,0.40
2013-8-27,83.5,74.2,68.1,72.0,69.6,67.0,97,86,61,29.87,29.80,3,0,5,0.45
2013-8-28,84.8,73.0,65.4,74.0,68.9,65.0,98,88,63,29.91,29.80,4,0,6,0.04
2013-8-29,75.2,69.1,64.5,69.0,65.0,61.0,97,87,76,30.04,29.90,4,0,7,0.00
2013-8-30,84.0,71.8,61.9,70.0,65.5,60.0,95,81,57,30.01,29.80,3,0,7,0.00
2013-8-31,81.7,74.4,68.4,75.0,71.1,67.0,96,89,77,29.80,29.75,5,0,10,0.00
2013-9-1,80.1,73.2,67.5,74.0,71.0,67.0,98,93,80,29.85,29.79,2,0,5,0.45
2013-9-2,79.3,74.1,70.8,75.0,72.1,70.0,98,93,81,29.81,29.67,1,0,6,0.30
2013-9-3,75.1,69.0,62.0,71.0,64.3,57.0,98,85,65,29.83,29.68,3,0,4,0.00
2013-9-4,78.2,67.3,57.9,61.0,58.0,55.0,96,75,45,29.91,29.82,3,0,6,0.00
2013-9-5,70.6,61.5,49.4,63.0,53.8,44.0,97,78,41,30.15,29.86,3,0,6,0.01
2013-9-6,66.8,54.5,42.9,51.0,45.7,41.0,97,75,44,30.25,30.10,2,0,8,0.00
2013-9-7,77.6,61.0,45.2,61.0,52.6,44.0,98,77,41,30.10,29.86,4,0,7,0.00
2013-9-8,72.7,63.5,49.7,63.0,54.5,44.0,96,75,45,30.10,29.77,4,0,9,0.01
2013-9-9,68.9,55.9,41.6,53.0,47.0,41.0,96,75,45,30.24,30.10,3,0,7,0.00
2013-9-10,75.9,65.9,54.7,72.0,63.7,52.0,97,92,85,30.13,30.00,3,0,8,0.31
2013-9-11,92.2,77.1,66.0,80.0,71.9,66.0,98,85,59,30.06,29.90,3,0,9,0.13
2013-9-12,85.1,72.9,66.6,76.0,70.0,66.0,98,91,74,29.95,29.65,4,0,11,0.48
2013-9-13,75.8,66.2,56.3,67.0,62.9,54.0,98,89,66,29.79,29.58,3,0,8,0.08
2013-9-14,65.8,57.9,49.6,54.0,51.2,48.0,97,79,62,30.06,29.79,3,0,7,0.00
2013-9-15,69.3,56.8,43.4,58.0,50.3,42.0,97,80,49,30.18,30.04,2,0,5,0.00
2013-9-16,68.1,57.7,45.4,57.0,51.0,38.0,96,80,58,30.27,30.01,5,0,6,0.03
2013-9-17,61.4,49.4,37.9,47.0,40.9,36.0,95,75,47,30.44,30.27,4,0,6,0.00
2013-9-18,70.5,53.3,41.1,55.0,47.1,40.0,98,82,50,30.34,30.13,3,0,8,0.00
2013-9-19,74.0,57.3,44.1,59.0,50.9,43.0,98,82,45,30.16,30.02,2,0,4,0.00
2013-9-20,76.2,59.4,48.3,60.0,53.3,48.0,98,83,47,30.09,29.97,2,0,5,0.00
2013-9-21,74.2,63.6,50.4,66.0,59.8,50.0,98,88,69,30.01,29.65,5,1,11,0.02
2013-9-22,69.4,61.1,51.4,67.0,53.8,45.0,97,78,54,29.87,29.58,5,0,9,0.63
2013-9-23,61.3,51.7,43.6,47.0,43.4,41.0,91,75,54,30.03,29.87,4,0,9,0.00
2013-9-24,66.7,52.0,39.3,48.0,42.8,38.0,96,74,39,30.03,29.83,4,0,8,0.00
2013-9-25,68.2,55.5,43.1,57.0,49.8,42.0,98,83,56,29.97,29.85,3,0,5,0.00
2013-9-26,64.0,57.2,49.3,54.0,49.7,47.0,96,77,56,30.11,29.97,4,0,8,0.00
2013-9-27,63.8,55.0,47.8,54.0,50.8,47.0,97,86,67,30.27,30.12,2,0,5,0.00
2013-9-28,71.9,56.6,43.5,58.0,51.2,43.0,98,84,54,30.34,30.24,1,0,5,0.00
2013-9-29,69.4,55.4,46.1,57.0,50.6,46.0,98,86,55,30.25,30.07,3,0,3,0.00
2013-9-30,70.1,54.2,41.9,56.0,48.5,41.0,98,84,44,30.11,29.95,2,0,4,0.00
2013-10-1,75.3,57.5,45.4,60.0,52.7,45.0,98,86,55,29.99,29.85,3,0,6,0.00
2013-10-2,77.0,63.0,48.2,62.0,55.9,48.0,98,80,59,29.97,29.86,4,0,12,0.00
2013-10-3,76.0,59.9,46.8,57.0,51.1,44.0,97,76,32,30.10,29.97,2,0,4,0.00
2013-10-4,63.9,57.1,50.6,60.0,54.9,49.0,97,92,80,30.10,30.03,3,0,6,0.17
2013-10-5,70.7,62.6,57.8,62.0,59.3,57.0,98,89,72,30.10,30.03,2,0,5,0.22
2013-10-6,61.2,57.1,54.0,60.0,56.3,53.0,98,97,94,30.18,30.08,1,0,2,0.47
2013-10-7,75.1,60.8,54.2,70.0,59.4,54.0,99,95,80,30.10,29.73,5,0,15,0.74
2013-10-8,65.4,53.6,43.1,54.0,45.6,39.0,98,78,39,30.37,29.93,4,0,6,0.01
2013-10-9,62.0,49.0,39.3,48.0,43.4,38.0,97,83,55,30.48,30.35,2,0,5,0.00
2013-10-10,57.1,47.9,38.1,50.0,44.5,37.0,98,89,66,30.36,30.17,1,0,4,0.00
2013-10-11,69.5,54.7,42.8,55.0,47.6,42.0,98,80,42,30.17,30.07,5,0,7,0.00
2013-10-12,62.5,53.9,44.6,55.0,50.5,44.0,97,88,76,30.37,30.14,3,0,7,0.00
2013-10-13,63.0,55.5,48.8,52.0,49.6,46.0,92,81,63,30.43,30.36,3,0,6,0.00
2013-10-14,64.6,53.6,40.8,52.0,47.9,40.0,97,82,56,30.38,30.22,3,0,4,0.00
2013-10-15,69.0,59.1,51.6,57.0,53.5,50.0,95,82,62,30.25,30.12,2,0,3,0.00
2013-10-16,60.0,53.2,47.2,53.0,49.9,46.0,98,89,72,30.14,29.90,2,0,2,0.00
2013-10-17,73.4,60.6,50.3,61.0,54.6,49.0,97,83,54,29.90,29.67,3,0,7,0.05
2013-10-18,65.1,58.7,44.2,62.0,49.7,41.0,96,74,48,29.92,29.58,6,1,13,0.05
2013-10-19,65.9,51.4,37.3,49.0,42.9,36.0,97,75,43,29.97,29.73,4,0,9,0.01
2013-10-20,60.6,51.0,42.1,50.0,41.1,33.0,97,71,37,30.02,29.69,9,1,11,0.02
2013-10-21,66.0,51.4,35.6,46.0,40.6,35.0,97,70,39,30.12,29.96,4,0,7,0.00
2013-10-22,61.4,49.4,39.7,52.0,44.1,37.0,98,83,63,29.96,29.71,4,0,8,0.00
2013-10-23,51.8,43.1,33.5,39.0,35.7,32.0,96,77,52,29.80,29.59,2,0,3,0.00
2013-10-24,52.8,43.2,34.5,37.0,30.5,24.0,90,65,33,29.91,29.67,4,0,10,0.00
2013-10-25,49.7,39.2,30.6,35.0,30.3,27.0,96,73,44,30.16,29.91,5,0,10,0.00
2013-10-26,54.6,42.4,28.2,37.0,30.1,27.0,96,66,36,30.16,29.85,8,1,14,0.00
2013-10-27,52.8,46.5,35.7,36.0,33.1,30.0,84,61,43,30.07,29.79,5,0,10,0.00
2013-10-28,57.8,42.2,29.1,38.0,32.0,27.0,96,70,43,30.35,30.07,5,0,10,0.00
2013-10-29,47.3,36.0,27.7,28.0,26.0,24.0,90,70,40,30.46,30.35,4,0,6,0.00
2013-10-30,51.7,38.5,30.2,41.0,33.2,26.0,96,82,65,30.35,30.18,1,0,4,0.00
2013-10-31,56.9,41.1,31.0,56.0,40.2,30.0,98,96,93,30.24,29.77,2,0,6,0.25
2013-11-1,68.1,62.3,52.9,63.0,56.7,46.0,98,82,60,29.75,29.42,10,1,12,0.13
2013-11-2,65.5,51.4,40.3,48.0,44.0,39.0,96,78,47,29.75,29.58,4,0,9,0.00
2013-11-3,49.7,40.8,29.0,45.0,28.2,17.0,85,62,41,30.45,29.76,8,1,11,0.00
2013-11-4,41.9,31.0,22.5,21.0,19.1,15.0,86,64,35,30.70,30.45,6,0,8,0.00
2013-11-5,50.2,37.4,23.8,37.0,28.8,21.0,90,73,50,30.71,30.49,3,0,7,0.00
2013-11-6,60.5,50.1,38.5,49.0,42.3,36.0,92,76,57,30.49,30.02,9,1,12,0.00
2013-11-7,60.5,51.4,41.1,57.0,45.8,28.0,94,81,58,30.00,29.71,6,1,9,0.12
2013-11-8,46.6,38.0,29.6,35.0,28.3,24.0,93,70,44,30.11,29.85,5,1,13,0.00
2013-11-9,45.3,36.6,26.3,33.0,27.4,24.0,89,71,50,30.24,29.98,4,0,5,0.00
2013-11-10,51.1,43.4,36.7,40.0,35.2,29.0,93,74,57,29.98,29.75,5,0,20,0.01
2013-11-11,50.8,45.2,37.2,32.0,28.9,26.0,68,54,43,30.11,29.89,5,1,13,0.00
2013-11-12,47.8,35.2,25.6,35.0,22.5,15.0,75,60,48,30.22,29.88,5,1,10,0.00
2013-11-13,35.5,28.3,20.7,18.0,14.7,10.0,80,59,36,30.33,30.18,7,0,10,0.00
2013-11-14,51.2,37.4,26.3,25.0,22.0,18.0,78,57,33,30.18,30.06,4,0,8,0.00
2013-11-15,58.4,38.4,22.7,26.0,23.1,20.0,89,60,24,30.21,30.09,2,0,4,0.00
2013-11-16,58.7,42.8,33.1,36.0,31.2,26.0,89,66,35,30.30,30.19,2,0,6,0.00
2013-11-17,48.0,41.6,32.7,47.0,39.4,30.0,97,92,84,30.29,29.79,1,0,2,0.13
2013-11-18,63.6,56.3,46.3,59.0,45.5,31.0,98,70,44,29.78,29.52,5,1,13,0.28
2013-11-19,45.9,38.7,28.5,31.0,22.9,19.0,68,54,42,30.33,29.70,6,1,13,0.00
2013-11-20,39.8,29.8,22.0,19.0,17.1,14.0,83,61,35,30.63,30.34,5,1,10,0.00
2013-11-21,44.8,32.3,17.7,30.0,22.4,16.0,93,69,42,30.66,30.38,2,0,6,0.00
2013-11-22,44.9,41.4,38.8,44.0,38.6,30.0,97,90,68,30.37,29.84,0,0,2,0.08
2013-11-23,47.5,38.3,27.5,45.0,25.6,14.0,97,61,44,29.99,29.83,9,1,15,0.00
2013-11-24,27.1,22.3,17.5,17.0,4.6,-4.0,69,48,27,30.27,29.87,9,2,20,0.00
2013-11-25,33.4,25.3,12.9,15.0,8.1,-1.0,72,49,38,30.40,30.25,4,1,11,0.00
2013-11-26,37.2,33.2,28.3,31.0,23.1,14.0,95,68,47,30.32,30.00,3,0,6,0.18
2013-11-27,45.0,39.5,32.6,44.0,38.1,30.0,98,94,79,29.98,29.29,3,0,6,2.91
2013-11-28,36.1,27.9,21.6,30.0,15.3,9.0,78,60,42,30.46,29.55,11,2,18,0.00
2013-11-29,34.1,25.4,16.6,18.0,15.1,11.0,85,67,41,30.74,30.45,4,0,7,0.00
2013-11-30,31.1,22.3,12.3,20.0,12.9,9.0,91,69,44,30.80,30.42,3,0,5,0.00
2013-12-1,37.5,32.4,27.3,32.0,26.6,16.0,89,79,61,30.41,30.02,1,0,2,0.00
2013-12-2,39.5,35.9,29.6,37.0,33.1,29.0,97,89,85,30.03,29.91,1,0,2,0.00
2013-12-3,43.9,36.3,30.2,37.0,33.1,28.0,97,88,75,29.98,29.87,2,0,4,0.00
2013-12-4,42.6,31.9,24.5,32.0,27.9,24.0,96,86,64,30.18,29.98,3,0,5,0.00
2013-12-5,44.7,36.5,31.7,44.0,34.8,29.0,98,93,85,30.18,29.91,1,0,3,0.11
2013-12-6,49.9,43.5,32.6,49.0,40.2,32.0,98,88,67,30.15,29.85,2,0,8,0.25
2013-12-7,36.5,32.6,26.6,32.0,27.8,22.0,97,83,65,30.47,30.09,4,0,10,0.05
2013-12-8,30.8,27.9,22.8,24.0,20.1,17.0,93,74,58,30.59,30.46,1,0,3,0.00
2013-12-9,33.2,29.9,25.7,33.0,28.0,20.0,97,93,70,30.46,29.91,2,0,7,0.00
2013-12-10,33.7,29.9,19.1,33.0,28.0,18.0,97,92,80,30.02,29.81,2,0,6,0.00
2013-12-11,30.7,24.1,18.6,24.0,19.6,17.0,93,83,64,30.22,30.03,4,0,9,0.00
2013-12-12,24.4,19.4,13.7,19.0,9.9,4.0,87,68,43,30.30,30.07,3,0,12,0.00
2013-12-13,28.9,22.0,14.7,20.0,12.8,8.0,78,68,57,30.38,30.00,6,0,8,0.01
2013-12-14,20.4,12.3,9.8,12.0,5.8,0.0,91,76,62,30.61,30.12,6,2,10,0.00
2013-12-15,31.2,24.4,14.9,29.0,21.9,13.0,94,90,82,30.10,29.51,6,1,11,0.00
2013-12-16,28.7,22.5,12.6,21.0,12.4,8.0,89,66,45,30.21,29.73,5,1,9,0.00
2013-12-17,15.1,8.7,0.2,12.0,5.6,-3.0,90,87,80,30.26,29.98,3,0,5,0.00
2013-12-18,32.4,21.9,13.8,24.0,17.1,11.0,91,82,69,30.08,29.95,4,0,6,0.00
2013-12-19,42.5,30.9,15.6,27.0,23.7,14.0,94,76,51,30.11,29.95,4,0,10,0.00
2013-12-20,43.5,34.2,27.5,35.0,30.4,26.0,94,86,64,30.10,29.90,1,0,3,0.07
2013-12-21,53.7,40.6,30.0,45.0,37.0,29.0,96,87,68,29.95,29.84,1,0,3,0.09
2013-12-22,61.6,48.5,38.8,59.0,47.6,38.0,98,97,89,29.92,29.68,8,0,16,0.02
2013-12-23,47.1,40.9,35.9,47.0,40.0,32.0,98,97,84,30.12,29.89,2,0,5,0.48
2013-12-24,35.9,31.2,21.1,30.0,19.6,8.0,81,63,47,30.28,30.06,5,0,9,0.00
2013-12-25,23.4,19.4,13.3,11.0,6.0,3.0,71,56,44,30.51,30.28,5,1,9,0.00
2013-12-26,28.7,23.1,18.0,26.0,18.1,11.0,95,81,65,30.46,30.11,1,0,2,0.00
2013-12-27,35.3,26.4,16.0,25.0,20.4,14.0,95,79,56,30.29,30.20,2,0,4,0.00
2013-12-28,46.9,30.8,18.6,30.0,24.9,17.0,94,80,51,30.23,30.00,4,0,5,0.04
2013-12-29,37.3,32.4,26.1,36.0,30.7,25.0,97,93,82,30.03,29.49,7,0,11,0.90
2013-12-30,39.9,28.8,14.5,35.0,20.2,8.0,98,72,44,30.19,29.59,7,1,14,0.00
2013-12-31,25.0,18.8,10.8,18.0,10.3,6.0,87,70,52,30.21,30.02,3,0,7,0.00
2014-1-1,28.0,21.6,15.8,14.0,9.6,5.0,74,61,44,30.37,30.20,4,0,10,0.00
2014-1-2,20.8,13.8,6.6,17.0,10.5,4.0,89,86,76,30.34,29.85,14,2,14,0.00